createdAt,value
2019-02-14T21:26:39.208Z,26.77
2019-02-14T21:29:07.632Z,23.57
2019-02-14T21:31:35.908Z,22.37
2019-02-14T21:34:04.288Z,22.50
2019-02-14T21:36:32.681Z,28.47
2019-02-14T21:39:01.050Z,26.20
2019-02-14T21:41:29.426Z,27.60
2019-02-14T21:43:57.787Z,29.40
2019-02-14T21:46:26.173Z,24.90
2019-02-14T21:48:54.519Z,31.53
2019-02-14T21:51:22.908Z,28.60
2019-02-14T21:53:51.195Z,26.43
2019-02-14T21:56:19.607Z,32.53
2019-02-14T21:58:47.938Z,33.17
2019-02-14T22:01:17.759Z,34.77
2019-02-14T22:03:46.131Z,30.87
2019-02-14T22:06:14.501Z,36.17
2019-02-14T22:08:42.781Z,28.33
2019-02-14T22:11:11.177Z,30.23
2019-02-14T22:13:39.543Z,30.73
2019-02-14T22:16:07.994Z,32.27
2019-02-14T22:18:36.355Z,33.67
2019-02-14T22:21:04.729Z,30.13
2019-02-14T22:23:33.040Z,27.23
2019-02-14T22:26:01.394Z,30.20
2019-02-14T22:28:29.781Z,27.27
2019-02-14T22:30:58.131Z,29.47
2019-02-14T22:33:26.445Z,30.43
2019-02-14T22:35:54.720Z,29.63
2019-02-14T22:38:23.035Z,26.73
2019-02-14T22:40:51.314Z,29.63
2019-02-14T22:43:19.592Z,27.73
2019-02-14T22:45:47.920Z,30.33
2019-02-14T22:48:16.203Z,30.90
2019-02-14T22:56:01.660Z,30.77
2019-02-14T22:58:29.992Z,33.37
2019-02-14T23:00:58.544Z,31.90
2019-02-14T23:03:26.819Z,23.33
2019-02-14T23:05:55.199Z,26.07
2019-02-14T23:08:23.513Z,28.77
2019-02-14T23:10:51.794Z,27.40
2019-02-14T23:13:20.111Z,25.60
2019-02-14T23:15:48.434Z,23.33
2019-02-14T23:18:16.716Z,24.00
2019-02-14T23:20:45.032Z,25.70
2019-02-14T23:23:13.309Z,24.13
2019-02-14T23:25:41.586Z,28.67
2019-02-14T23:28:09.894Z,23.27
2019-02-14T23:30:38.171Z,21.87
2019-02-14T23:33:06.504Z,22.97
2019-02-14T23:35:34.789Z,25.93
2019-02-14T23:38:03.144Z,26.17
2019-02-14T23:40:31.450Z,24.70
2019-02-14T23:43:04.759Z,23.63
2019-02-14T23:45:29.767Z,21.90
2019-02-14T23:47:58.045Z,22.43
2019-02-14T23:50:26.314Z,20.93
2019-02-14T23:52:54.627Z,25.03
2019-02-14T23:55:22.909Z,22.93
2019-02-14T23:57:51.303Z,24.97
